Time;durP1;ratioP1;P1;durP2;ratioP2;P2;SDS_P1;SDS_P2;PMS_P1;PMS_P2;Temp;Humidity;BMP_temperature;BMP_pressure;BME280_temperature;BME280_humidity;BME280_pressure;Samples;Min_cycle;Max_cycle;Signal;HPM_P1;HPM_P2
2022/08/23 00:00:47;;;;;;;;;;;24.20;99.90;;;;;;5078163;28;20560;-70
2022/08/23 00:03:13;;;;;;;;;;;24.20;99.90;;;;;;5077972;28;19915;-70
2022/08/23 00:05:39;;;;;;;;;;;24.20;99.90;;;;;;5075827;28;20105;-70
2022/08/23 00:08:04;;;;;;;;;;;24.00;99.90;;;;;;5075893;28;19919;-70
2022/08/23 00:10:31;;;;;;;;;;;24.00;99.90;;;;;;5075428;28;20047;-71
2022/08/23 00:12:56;;;;;;;;;;;24.00;99.90;;;;;;5077997;28;19920;-70
2022/08/23 00:15:22;;;;;;;;;;;24.00;99.90;;;;;;5080061;28;20007;-70
2022/08/23 00:17:48;;;;;;;;;;;24.00;99.90;;;;;;5076734;28;19998;-69
2022/08/23 00:20:14;;;;;;;;;;;23.90;99.90;;;;;;5074740;28;19939;-69
2022/08/23 00:22:40;;;;;;;;;;;23.80;99.90;;;;;;5077742;28;20401;-70
2022/08/23 00:25:07;;;;;;;;;;;23.90;99.90;;;;;;5076378;28;19923;-71
2022/08/23 00:27:36;;;;;;;;;;;24.00;99.90;;;;;;5076487;28;20212;-71
2022/08/23 00:30:03;;;;;;;;;;;24.10;99.90;;;;;;5077670;28;19912;-71
2022/08/23 00:32:30;;;;;;;;;;;24.00;99.90;;;;;;5104865;28;20008;-69
2022/08/23 00:34:57;;;;;;;;;;;24.00;99.90;;;;;;5110528;28;19908;-70
2022/08/23 00:37:23;;;;;;;;;;;24.00;99.90;;;;;;5099180;28;19908;-70
2022/08/23 00:39:49;;;;;;;;;;;24.00;99.90;;;;;;5081032;28;19914;-71
2022/08/23 00:48:02;;;;;;;;;;;23.90;99.90;;;;;;5077209;28;19919;-70
2022/08/23 00:50:36;;;;;;;;;;;24.00;99.90;;;;;;5076526;28;20424;-70
2022/08/23 00:53:15;;;;;;;;;;;24.00;99.90;;;;;;5078841;28;19970;-70
2022/08/23 00:55:42;;;;;;;;;;;24.00;99.90;;;;;;5071274;28;21324;-69
2022/08/23 00:58:08;;;;;;;;;;;24.00;99.90;;;;;;5082856;28;19912;-70
2022/08/23 01:00:34;;;;;;;;;;;23.90;99.90;;;;;;5062892;28;19919;-69
2022/08/23 01:03:02;;;;;;;;;;;23.90;99.90;;;;;;5080471;28;19919;-69
2022/08/23 01:05:32;;;;;;;;;;;23.90;99.90;;;;;;5062060;28;19917;-70
2022/08/23 01:07:58;;;;;;;;;;;24.00;99.90;;;;;;5090659;28;19912;-70
2022/08/23 01:10:34;;;;;;;;;;;24.10;99.90;;;;;;5079825;28;19920;-70
2022/08/23 01:13:04;;;;;;;;;;;24.00;99.90;;;;;;5079455;28;19974;-69
2022/08/23 01:15:34;;;;;;;;;;;23.80;99.90;;;;;;5076400;28;19977;-71
2022/08/23 01:18:05;;;;;;;;;;;23.70;99.90;;;;;;5081248;28;20365;-70
2022/08/23 01:20:37;;;;;;;;;;;23.50;99.90;;;;;;5081459;28;19930;-69
2022/08/23 01:23:22;;;;;;;;;;;23.50;99.90;;;;;;5083716;28;19920;-70
2022/08/23 01:25:48;;;;;;;;;;;23.50;99.90;;;;;;5080561;28;19925;-70
2022/08/23 01:28:14;;;;;;;;;;;23.60;99.90;;;;;;5077828;28;19943;-70
2022/08/23 01:30:42;;;;;;;;;;;23.50;99.90;;;;;;5081191;28;19912;-71
2022/08/23 01:33:07;;;;;;;;;;;23.40;99.90;;;;;;5078376;28;19935;-70
2022/08/23 01:35:37;;;;;;;;;;;23.40;99.90;;;;;;5076579;28;20373;-70
2022/08/23 01:38:03;;;;;;;;;;;23.30;99.90;;;;;;5079848;28;20455;-70
2022/08/23 01:40:30;;;;;;;;;;;23.00;99.90;;;;;;5078163;28;20365;-70
2022/08/23 01:42:55;;;;;;;;;;;22.40;99.90;;;;;;5080366;28;19922;-69
2022/08/23 01:45:21;;;;;;;;;;;22.20;99.90;;;;;;5078379;28;19924;-70
2022/08/23 01:47:47;;;;;;;;;;;22.40;99.90;;;;;;5083191;28;19995;-70
2022/08/23 01:50:12;;;;;;;;;;;22.70;99.90;;;;;;5074991;28;20003;-70
2022/08/23 01:52:39;;;;;;;;;;;22.70;99.90;;;;;;5077595;28;20396;-69
2022/08/23 01:55:04;;;;;;;;;;;22.80;99.90;;;;;;5076237;28;19919;-69
2022/08/23 01:57:31;;;;;;;;;;;23.10;99.90;;;;;;5078085;28;19920;-70
2022/08/23 01:59:57;;;;;;;;;;;23.20;99.90;;;;;;5080550;28;20373;-70
2022/08/23 02:02:23;;;;;;;;;;;23.40;99.90;;;;;;5077904;28;19928;-70
2022/08/23 02:04:48;;;;;;;;;;;23.40;99.90;;;;;;5080390;28;20460;-70
2022/08/23 02:07:14;;;;;;;;;;;23.50;99.90;;;;;;5078823;28;19946;-70
2022/08/23 02:09:40;;;;;;;;;;;23.60;99.90;;;;;;5076677;28;20288;-70
2022/08/23 02:12:06;;;;;;;;;;;23.70;99.90;;;;;;5079166;28;19980;-69
2022/08/23 02:14:32;;;;;;;;;;;23.80;99.90;;;;;;5059074;28;19912;-70
2022/08/23 02:16:58;;;;;;;;;;;24.00;99.90;;;;;;5080825;28;19981;-69
2022/08/23 02:19:24;;;;;;;;;;;24.00;99.90;;;;;;5075790;28;20432;-69
2022/08/23 02:21:49;;;;;;;;;;;24.10;99.90;;;;;;5079259;28;19927;-69
2022/08/23 02:24:17;;;;;;;;;;;24.10;99.90;;;;;;5078273;28;19926;-69
2022/08/23 02:26:45;;;;;;;;;;;24.00;99.90;;;;;;5077846;28;19912;-72
2022/08/23 02:29:10;;;;;;;;;;;23.80;99.90;;;;;;5079246;28;19912;-69
2022/08/23 02:31:36;;;;;;;;;;;23.90;99.90;;;;;;5079380;28;19919;-70
2022/08/23 02:34:02;;;;;;;;;;;23.90;99.90;;;;;;5079072;28;19954;-69
2022/08/23 02:36:28;;;;;;;;;;;24.00;99.90;;;;;;5079374;28;19916;-69
2022/08/23 02:38:54;;;;;;;;;;;23.90;99.90;;;;;;5079539;28;20687;-69
2022/08/23 02:41:21;;;;;;;;;;;24.00;99.90;;;;;;5076178;28;19916;-70
2022/08/23 02:43:49;;;;;;;;;;;23.90;99.90;;;;;;5076327;28;19927;-69
2022/08/23 02:46:15;;;;;;;;;;;23.80;99.90;;;;;;5075860;28;20532;-70
2022/08/23 02:48:40;;;;;;;;;;;23.80;99.90;;;;;;5075605;28;19986;-68
2022/08/23 02:51:07;;;;;;;;;;;23.90;99.90;;;;;;5085659;28;19916;-69
2022/08/23 02:53:33;;;;;;;;;;;24.00;99.90;;;;;;5080250;28;19912;-69
2022/08/23 02:55:59;;;;;;;;;;;23.90;99.90;;;;;;5079410;28;20319;-70
2022/08/23 02:58:25;;;;;;;;;;;23.80;99.90;;;;;;5077166;28;19969;-70
2022/08/23 03:00:51;;;;;;;;;;;23.80;99.90;;;;;;5078589;28;19912;-70
2022/08/23 03:03:17;;;;;;;;;;;23.80;99.90;;;;;;5077277;28;19912;-69
2022/08/23 03:05:43;;;;;;;;;;;23.80;99.90;;;;;;5077369;28;19932;-70
2022/08/23 03:08:09;;;;;;;;;;;23.80;99.90;;;;;;5079348;28;19912;-71
2022/08/23 03:10:35;;;;;;;;;;;23.80;99.90;;;;;;5080713;28;19966;-71
2022/08/23 03:13:01;;;;;;;;;;;23.70;99.90;;;;;;5079259;28;19916;-70
2022/08/23 03:15:27;;;;;;;;;;;23.70;99.90;;;;;;5078100;28;19920;-70
2022/08/23 03:17:52;;;;;;;;;;;23.80;99.90;;;;;;5077311;28;20011;-70
2022/08/23 03:20:18;;;;;;;;;;;23.80;99.90;;;;;;5073918;28;20409;-69
2022/08/23 03:22:44;;;;;;;;;;;23.80;99.90;;;;;;5076257;28;20377;-70
2022/08/23 03:25:09;;;;;;;;;;;23.80;99.90;;;;;;5073792;28;19963;-68
2022/08/23 03:27:35;;;;;;;;;;;23.80;99.90;;;;;;5080632;28;19932;-70
2022/08/23 03:30:00;;;;;;;;;;;23.70;99.90;;;;;;5091095;28;19908;-70
2022/08/23 03:32:26;;;;;;;;;;;23.70;99.90;;;;;;5111952;28;19969;-70
2022/08/23 03:34:52;;;;;;;;;;;23.60;99.90;;;;;;5097330;28;19908;-70
2022/08/23 03:37:19;;;;;;;;;;;23.60;99.90;;;;;;5073275;28;19930;-70
2022/08/23 03:39:44;;;;;;;;;;;23.60;99.90;;;;;;5091308;28;19986;-70
2022/08/23 03:42:10;;;;;;;;;;;23.70;99.90;;;;;;5091524;28;19916;-70
2022/08/23 03:44:37;;;;;;;;;;;23.60;99.90;;;;;;5091191;28;19923;-70
2022/08/23 03:47:04;;;;;;;;;;;23.70;99.90;;;;;;5086884;28;19919;-70
2022/08/23 03:49:30;;;;;;;;;;;23.70;99.90;;;;;;5091210;28;19999;-71
2022/08/23 03:51:56;;;;;;;;;;;23.70;99.90;;;;;;5091278;28;19951;-70
2022/08/23 03:54:22;;;;;;;;;;;23.80;99.90;;;;;;5070074;28;19915;-70
2022/08/23 03:56:52;;;;;;;;;;;23.90;99.90;;;;;;5078327;28;19924;-70
2022/08/23 03:59:18;;;;;;;;;;;23.80;99.90;;;;;;5072591;28;20392;-70
2022/08/23 04:01:44;;;;;;;;;;;23.90;99.90;;;;;;5079110;28;19912;-70
2022/08/23 04:04:10;;;;;;;;;;;23.90;99.90;;;;;;5076767;28;20322;-70
2022/08/23 04:06:35;;;;;;;;;;;23.90;99.90;;;;;;5073503;28;19912;-69
2022/08/23 04:09:01;;;;;;;;;;;23.90;99.90;;;;;;5078772;28;19962;-70
2022/08/23 04:11:27;;;;;;;;;;;23.90;99.90;;;;;;5077871;28;19920;-70
2022/08/23 04:13:55;;;;;;;;;;;23.90;99.90;;;;;;5080319;28;19917;-70
2022/08/23 04:16:21;;;;;;;;;;;23.80;99.90;;;;;;5081042;28;20007;-70
2022/08/23 04:18:47;;;;;;;;;;;23.80;99.90;;;;;;5080392;28;20007;-69
2022/08/23 04:21:15;;;;;;;;;;;23.80;99.90;;;;;;5076833;28;19947;-69
2022/08/23 04:23:42;;;;;;;;;;;23.80;99.90;;;;;;5064398;28;20356;-70
2022/08/23 04:26:08;;;;;;;;;;;23.80;99.90;;;;;;5063125;28;19923;-70
2022/08/23 04:28:34;;;;;;;;;;;23.90;99.90;;;;;;5076394;28;19912;-72
2022/08/23 04:31:00;;;;;;;;;;;23.90;99.90;;;;;;5079277;28;19920;-69
2022/08/23 04:33:26;;;;;;;;;;;23.90;99.90;;;;;;5073647;28;19925;-70
2022/08/23 04:35:52;;;;;;;;;;;23.90;99.90;;;;;;5071100;28;19920;-69
2022/08/23 04:38:18;;;;;;;;;;;23.90;99.90;;;;;;5074986;28;19920;-69
2022/08/23 04:43:27;;;;;;;;;;;23.80;99.90;;;;;;5076993;28;19920;-71
2022/08/23 04:45:53;;;;;;;;;;;23.80;99.90;;;;;;5077161;28;19999;-70
2022/08/23 04:48:18;;;;;;;;;;;23.80;99.90;;;;;;5076333;28;20543;-70
2022/08/23 04:50:44;;;;;;;;;;;23.70;99.90;;;;;;5073545;28;19912;-70
2022/08/23 04:53:10;;;;;;;;;;;23.60;99.90;;;;;;5079458;28;19963;-70
2022/08/23 04:55:36;;;;;;;;;;;23.60;99.90;;;;;;5079838;28;20042;-71
2022/08/23 04:58:03;;;;;;;;;;;23.50;99.90;;;;;;5071784;28;19943;-70
2022/08/23 05:00:28;;;;;;;;;;;23.40;99.90;;;;;;5075129;28;19974;-69
2022/08/23 05:02:54;;;;;;;;;;;23.40;99.90;;;;;;5070632;28;19913;-70
2022/08/23 05:05:20;;;;;;;;;;;23.40;99.90;;;;;;5077895;28;19927;-70
2022/08/23 05:07:45;;;;;;;;;;;23.30;99.90;;;;;;5090913;28;19923;-70
2022/08/23 05:10:12;;;;;;;;;;;23.30;99.90;;;;;;5062601;28;20042;-69
2022/08/23 05:12:38;;;;;;;;;;;23.30;99.90;;;;;;5060626;28;19920;-70
2022/08/23 05:15:04;;;;;;;;;;;23.40;99.90;;;;;;5073256;28;19923;-68
2022/08/23 05:17:34;;;;;;;;;;;23.40;99.90;;;;;;5074834;28;19953;-72
2022/08/23 05:20:05;;;;;;;;;;;23.40;99.90;;;;;;5090557;28;19912;-70
2022/08/23 05:22:36;;;;;;;;;;;23.30;99.90;;;;;;5072494;28;19961;-69
2022/08/23 05:25:01;;;;;;;;;;;23.30;99.90;;;;;;5077297;28;19977;-70
2022/08/23 05:27:27;;;;;;;;;;;23.30;99.90;;;;;;5076376;28;20306;-70
2022/08/23 05:29:53;;;;;;;;;;;23.30;99.90;;;;;;5075503;28;19912;-69
2022/08/23 05:32:19;;;;;;;;;;;23.30;99.90;;;;;;5059476;28;19970;-70
2022/08/23 05:34:45;;;;;;;;;;;23.30;99.90;;;;;;5077792;28;19923;-70
2022/08/23 05:37:11;;;;;;;;;;;23.30;99.90;;;;;;5075895;28;19912;-71
2022/08/23 05:39:37;;;;;;;;;;;23.30;99.90;;;;;;5077538;28;21278;-72
2022/08/23 05:42:03;;;;;;;;;;;23.30;99.90;;;;;;5078845;28;19919;-70
2022/08/23 05:44:29;;;;;;;;;;;23.30;99.90;;;;;;5079270;28;19970;-71
2022/08/23 05:46:54;;;;;;;;;;;23.40;99.90;;;;;;5080077;28;20342;-70
2022/08/23 05:49:20;;;;;;;;;;;23.50;99.90;;;;;;5100465;28;19981;-72
2022/08/23 05:51:46;;;;;;;;;;;23.50;99.90;;;;;;5079921;28;19923;-71
2022/08/23 05:54:11;;;;;;;;;;;23.50;99.90;;;;;;5091109;28;19955;-69
2022/08/23 05:56:41;;;;;;;;;;;23.50;99.90;;;;;;5078426;28;19916;-71
2022/08/23 05:59:08;;;;;;;;;;;23.40;99.90;;;;;;5077867;28;19916;-71
2022/08/23 06:01:34;;;;;;;;;;;23.30;99.90;;;;;;5080453;28;20003;-71
2022/08/23 06:04:01;;;;;;;;;;;23.40;99.90;;;;;;5083581;28;20022;-70
2022/08/23 06:06:27;;;;;;;;;;;23.40;99.90;;;;;;5082496;28;19960;-69
2022/08/23 06:08:53;;;;;;;;;;;23.40;99.90;;;;;;5080742;28;19923;-70
2022/08/23 06:11:19;;;;;;;;;;;23.40;99.90;;;;;;5083379;28;20388;-70
2022/08/23 06:13:50;;;;;;;;;;;23.40;99.90;;;;;;5080837;28;19915;-70
2022/08/23 06:16:17;;;;;;;;;;;23.40;99.90;;;;;;5081322;28;20369;-70
2022/08/23 06:18:43;;;;;;;;;;;23.50;99.90;;;;;;5077395;28;19919;-71
2022/08/23 06:21:10;;;;;;;;;;;23.60;99.90;;;;;;5066733;28;19912;-70
2022/08/23 06:23:36;;;;;;;;;;;23.70;99.90;;;;;;5077515;28;20382;-67
2022/08/23 06:26:08;;;;;;;;;;;23.50;99.90;;;;;;5076930;28;19942;-66
2022/08/23 06:28:33;;;;;;;;;;;23.50;99.90;;;;;;5079027;28;19966;-67
2022/08/23 06:30:59;;;;;;;;;;;23.50;99.90;;;;;;5075443;28;19947;-66
2022/08/23 06:33:26;;;;;;;;;;;23.50;99.90;;;;;;5078614;28;19917;-66
2022/08/23 06:36:00;;;;;;;;;;;23.40;99.90;;;;;;5075935;28;19917;-67
2022/08/23 06:38:25;;;;;;;;;;;23.50;99.90;;;;;;5079183;28;19912;-66
2022/08/23 06:40:51;;;;;;;;;;;23.60;99.90;;;;;;5079614;28;19916;-68
2022/08/23 06:43:17;;;;;;;;;;;23.70;99.90;;;;;;5079213;28;20397;-66
2022/08/23 06:45:43;;;;;;;;;;;23.60;99.90;;;;;;5079764;28;19924;-67
2022/08/23 06:48:09;;;;;;;;;;;23.60;99.90;;;;;;5060651;28;20284;-67
2022/08/23 06:50:34;;;;;;;;;;;23.50;99.90;;;;;;5076462;28;19920;-68
2022/08/23 06:53:00;;;;;;;;;;;23.50;99.90;;;;;;5075007;28;20030;-67
2022/08/23 06:55:25;;;;;;;;;;;23.50;99.90;;;;;;5074911;28;19927;-67
2022/08/23 06:57:51;;;;;;;;;;;23.50;99.90;;;;;;5080630;28;19916;-67
2022/08/23 07:00:17;;;;;;;;;;;23.50;99.90;;;;;;5077818;28;20002;-66
2022/08/23 07:02:42;;;;;;;;;;;23.60;99.90;;;;;;5076242;28;19969;-67
2022/08/23 07:05:08;;;;;;;;;;;23.50;99.90;;;;;;5077181;28;19938;-66
2022/08/23 07:07:33;;;;;;;;;;;23.50;99.90;;;;;;5073982;28;19924;-66
2022/08/23 07:09:59;;;;;;;;;;;23.60;99.90;;;;;;5094645;28;20377;-67
2022/08/23 07:12:24;;;;;;;;;;;23.70;99.90;;;;;;5078235;28;19916;-67
2022/08/23 07:14:50;;;;;;;;;;;23.70;99.90;;;;;;5077887;28;19912;-68
2022/08/23 07:17:15;;;;;;;;;;;23.70;99.90;;;;;;5080318;28;20534;-67
2022/08/23 07:19:42;;;;;;;;;;;23.70;99.90;;;;;;5093828;28;19919;-68
2022/08/23 07:22:12;;;;;;;;;;;23.80;99.90;;;;;;5090506;28;19916;-70
2022/08/23 07:24:37;;;;;;;;;;;23.80;99.90;;;;;;5092067;28;20388;-68
2022/08/23 07:27:09;;;;;;;;;;;23.80;99.90;;;;;;5091710;28;19995;-69
2022/08/23 07:29:35;;;;;;;;;;;23.80;99.90;;;;;;5095872;28;19911;-67
2022/08/23 07:32:02;;;;;;;;;;;23.80;99.90;;;;;;5091585;28;20377;-68
2022/08/23 07:34:28;;;;;;;;;;;24.00;99.90;;;;;;5091274;28;20310;-67
2022/08/23 07:36:53;;;;;;;;;;;24.20;99.90;;;;;;5094538;28;20068;-67
2022/08/23 07:39:21;;;;;;;;;;;24.10;99.90;;;;;;5094522;28;19958;-67
2022/08/23 07:41:46;;;;;;;;;;;24.00;99.90;;;;;;5110570;28;19919;-68
2022/08/23 07:44:12;;;;;;;;;;;24.00;99.90;;;;;;5112247;28;19908;-68
2022/08/23 07:46:39;;;;;;;;;;;24.00;99.90;;;;;;5106246;28;19916;-67
2022/08/23 07:49:05;;;;;;;;;;;24.00;99.90;;;;;;5090138;28;19923;-67
2022/08/23 07:51:31;;;;;;;;;;;23.80;99.90;;;;;;5091469;28;19908;-68
2022/08/23 07:53:57;;;;;;;;;;;23.70;99.90;;;;;;5092895;28;20369;-66
2022/08/23 07:56:22;;;;;;;;;;;23.60;99.90;;;;;;5094058;28;19912;-67
2022/08/23 07:58:49;;;;;;;;;;;23.60;99.90;;;;;;5095079;28;20444;-68
2022/08/23 08:01:16;;;;;;;;;;;23.70;99.90;;;;;;5092282;28;20305;-66
2022/08/23 08:03:42;;;;;;;;;;;23.50;99.90;;;;;;5090097;28;19913;-66
2022/08/23 08:06:12;;;;;;;;;;;23.50;99.90;;;;;;5094621;28;20389;-67
2022/08/23 08:08:39;;;;;;;;;;;23.60;99.90;;;;;;5102068;28;20270;-67
2022/08/23 08:11:07;;;;;;;;;;;23.70;99.90;;;;;;5105773;28;19912;-67
2022/08/23 08:13:34;;;;;;;;;;;23.70;99.90;;;;;;5090222;28;20254;-66
2022/08/23 08:15:59;;;;;;;;;;;23.70;99.90;;;;;;5092818;28;19913;-66
2022/08/23 08:18:25;;;;;;;;;;;23.70;99.90;;;;;;5102227;28;19912;-67
2022/08/23 08:20:51;;;;;;;;;;;24.00;99.90;;;;;;5090992;28;19908;-67
2022/08/23 08:23:16;;;;;;;;;;;24.20;99.90;;;;;;5090790;28;20316;-67
2022/08/23 08:25:42;;;;;;;;;;;24.20;99.90;;;;;;5094680;28;19970;-68
2022/08/23 08:28:08;;;;;;;;;;;24.40;99.90;;;;;;5089954;28;19912;-67
2022/08/23 08:30:33;;;;;;;;;;;24.30;99.90;;;;;;5106634;28;19912;-67
2022/08/23 08:32:59;;;;;;;;;;;24.20;99.90;;;;;;5100278;28;19913;-68
2022/08/23 08:35:24;;;;;;;;;;;24.20;99.90;;;;;;5096411;28;19912;-67
2022/08/23 08:37:50;;;;;;;;;;;24.20;99.90;;;;;;5102063;28;19952;-67
2022/08/23 08:40:19;;;;;;;;;;;24.20;99.90;;;;;;5090231;28;19928;-65
2022/08/23 08:43:04;;;;;;;;;;;24.40;99.90;;;;;;5097083;28;20026;-67
2022/08/23 08:45:32;;;;;;;;;;;24.60;99.90;;;;;;5085403;28;19923;-67
2022/08/23 08:48:05;;;;;;;;;;;24.80;99.90;;;;;;5095467;28;19908;-67
2022/08/23 08:50:36;;;;;;;;;;;25.00;99.90;;;;;;5094282;28;19912;-66
2022/08/23 08:53:10;;;;;;;;;;;25.30;99.90;;;;;;5097130;28;19911;-68
2022/08/23 08:55:38;;;;;;;;;;;25.30;99.90;;;;;;5111401;28;19919;-67
2022/08/23 08:58:05;;;;;;;;;;;25.20;99.90;;;;;;5106751;28;20079;-67
2022/08/23 09:00:35;;;;;;;;;;;24.80;99.90;;;;;;5099371;28;20408;-68
2022/08/23 09:03:04;;;;;;;;;;;24.70;99.90;;;;;;5091963;28;19912;-69
2022/08/23 09:05:31;;;;;;;;;;;24.70;99.90;;;;;;5094199;28;20021;-67
2022/08/23 09:08:10;;;;;;;;;;;25.00;99.90;;;;;;5082049;28;19908;-71
2022/08/23 09:10:35;;;;;;;;;;;25.10;99.90;;;;;;5092664;28;19916;-69
2022/08/23 09:13:07;;;;;;;;;;;25.10;99.90;;;;;;5093143;28;20049;-69
2022/08/23 09:15:40;;;;;;;;;;;24.90;99.90;;;;;;5087864;28;19918;-69
2022/08/23 09:18:08;;;;;;;;;;;24.80;99.90;;;;;;5093428;28;20066;-71
2022/08/23 09:20:34;;;;;;;;;;;24.90;99.90;;;;;;5099457;28;19911;-70
2022/08/23 09:23:20;;;;;;;;;;;25.00;99.90;;;;;;5095461;28;19923;-69
2022/08/23 09:25:50;;;;;;;;;;;25.30;99.90;;;;;;5096142;28;20144;-70
2022/08/23 09:28:15;;;;;;;;;;;25.20;99.90;;;;;;5098532;28;19912;-69
2022/08/23 09:30:44;;;;;;;;;;;25.30;99.90;;;;;;5092325;28;19919;-69
2022/08/23 09:33:20;;;;;;;;;;;25.30;99.90;;;;;;5088175;28;20427;-67
2022/08/23 09:36:04;;;;;;;;;;;25.50;99.90;;;;;;5096862;28;19916;-68
2022/08/23 09:38:31;;;;;;;;;;;25.60;99.90;;;;;;5114197;28;20313;-68
2022/08/23 09:40:57;;;;;;;;;;;25.60;99.90;;;;;;5106767;28;20234;-68
2022/08/23 09:43:24;;;;;;;;;;;25.60;99.90;;;;;;5075846;28;19919;-69
2022/08/23 09:45:50;;;;;;;;;;;25.30;99.90;;;;;;5103511;28;19920;-68
2022/08/23 09:48:33;;;;;;;;;;;25.20;99.90;;;;;;5098310;28;20369;-69
2022/08/23 09:51:17;;;;;;;;;;;25.10;99.90;;;;;;5092801;28;19919;-70
2022/08/23 09:53:48;;;;;;;;;;;25.40;99.90;;;;;;5101746;28;19919;-68
2022/08/23 09:56:23;;;;;;;;;;;25.60;99.90;;;;;;5086637;28;20060;-70
2022/08/23 09:58:52;;;;;;;;;;;25.40;99.90;;;;;;5093891;28;19912;-69
2022/08/23 10:01:20;;;;;;;;;;;25.50;99.90;;;;;;5092809;28;19935;-68
2022/08/23 10:04:04;;;;;;;;;;;25.80;99.90;;;;;;5095847;28;20285;-69
2022/08/23 10:06:32;;;;;;;;;;;26.20;99.90;;;;;;5082040;28;20243;-71
2022/08/23 10:09:04;;;;;;;;;;;26.40;99.90;;;;;;5099094;28;19912;-70
2022/08/23 10:11:43;;;;;;;;;;;26.30;99.90;;;;;;5090148;28;20500;-70
2022/08/23 10:14:11;;;;;;;;;;;26.20;99.90;;;;;;5106238;28;20513;-69
2022/08/23 10:16:49;;;;;;;;;;;26.00;99.90;;;;;;5091584;28;19916;-69
2022/08/23 10:19:15;;;;;;;;;;;26.00;99.90;;;;;;5093627;28;19999;-69
2022/08/23 10:22:02;;;;;;;;;;;25.90;99.90;;;;;;5094367;28;20138;-69
2022/08/23 10:24:28;;;;;;;;;;;25.90;99.90;;;;;;5086489;28;19916;-70
2022/08/23 10:30:10;;;;;;;;;;;26.00;99.90;;;;;;5092771;28;19937;-69
2022/08/23 10:32:39;;;;;;;;;;;25.80;99.90;;;;;;5094943;28;20316;-73
2022/08/23 10:35:23;;;;;;;;;;;25.90;99.90;;;;;;5090653;28;20308;-68
2022/08/23 10:38:07;;;;;;;;;;;26.00;99.90;;;;;;5096669;28;19977;-71
2022/08/23 10:40:39;;;;;;;;;;;26.00;99.90;;;;;;5092614;28;19912;-69
2022/08/23 10:43:24;;;;;;;;;;;26.30;99.90;;;;;;5093813;28;20280;-68
2022/08/23 10:45:51;;;;;;;;;;;26.30;99.90;;;;;;5088850;28;19916;-68
2022/08/23 10:48:27;;;;;;;;;;;26.10;99.90;;;;;;5077849;28;19916;-72
2022/08/23 10:50:55;;;;;;;;;;;26.00;99.90;;;;;;5075436;28;19916;-69
2022/08/23 10:53:22;;;;;;;;;;;26.10;99.90;;;;;;5092841;28;20408;-71
2022/08/23 10:56:03;;;;;;;;;;;26.50;99.90;;;;;;5095169;28;20451;-70
2022/08/23 10:58:35;;;;;;;;;;;26.30;99.90;;;;;;5108610;28;19916;-71
2022/08/23 11:01:01;;;;;;;;;;;26.30;99.90;;;;;;5118214;28;19994;-68
2022/08/23 11:03:56;;;;;;;;;;;26.30;99.90;;;;;;5101738;28;20030;-70
2022/08/23 11:06:24;;;;;;;;;;;26.50;99.90;;;;;;5089758;28;19966;-70
2022/08/23 11:09:02;;;;;;;;;;;26.30;99.90;;;;;;5096700;28;19919;-70
2022/08/23 11:11:35;;;;;;;;;;;26.20;99.90;;;;;;5096872;28;20002;-72
2022/08/23 11:14:00;;;;;;;;;;;26.30;99.90;;;;;;5096941;28;19908;-68
2022/08/23 11:16:29;;;;;;;;;;;26.30;99.90;;;;;;5095926;28;20292;-69
2022/08/23 11:18:54;;;;;;;;;;;26.30;99.90;;;;;;5104168;28;19963;-69
2022/08/23 11:21:32;;;;;;;;;;;26.30;99.90;;;;;;5111838;28;19927;-68
2022/08/23 11:23:57;;;;;;;;;;;26.30;99.90;;;;;;5098080;28;20254;-67
2022/08/23 11:26:32;;;;;;;;;;;26.20;99.90;;;;;;5096483;28;19923;-67
2022/08/23 11:29:04;;;;;;;;;;;26.20;99.90;;;;;;5108544;28;19908;-71
2022/08/23 11:31:42;;;;;;;;;;;26.30;99.90;;;;;;5113759;28;19958;-67
2022/08/23 11:34:10;;;;;;;;;;;26.50;99.90;;;;;;5107062;28;20051;-68
2022/08/23 11:36:36;;;;;;;;;;;26.70;99.90;;;;;;5106652;28;19914;-68
2022/08/23 11:39:11;;;;;;;;;;;26.70;99.90;;;;;;5105869;28;20006;-67
2022/08/23 11:41:52;;;;;;;;;;;26.90;99.90;;;;;;5111928;28;19934;-68
2022/08/23 11:44:21;;;;;;;;;;;26.90;99.90;;;;;;5109817;28;19927;-69
2022/08/23 11:46:47;;;;;;;;;;;26.60;99.90;;;;;;5107977;28;19912;-70
2022/08/23 11:49:21;;;;;;;;;;;26.50;99.90;;;;;;5103311;28;19919;-70
2022/08/23 11:52:02;;;;;;;;;;;26.40;99.90;;;;;;5093201;28;19920;-68
2022/08/23 11:54:30;;;;;;;;;;;26.50;99.90;;;;;;5090155;28;19912;-69
2022/08/23 11:57:02;;;;;;;;;;;26.50;99.90;;;;;;5093432;28;19915;-70
2022/08/23 11:59:40;;;;;;;;;;;26.60;99.90;;;;;;5100664;28;20030;-69
2022/08/23 12:02:32;;;;;;;;;;;26.60;99.90;;;;;;5091903;28;20262;-68
2022/08/23 12:05:00;;;;;;;;;;;26.70;99.90;;;;;;5088518;28;19916;-70
2022/08/23 12:07:44;;;;;;;;;;;26.70;99.90;;;;;;5106502;28;19931;-70
2022/08/23 12:10:09;;;;;;;;;;;26.50;99.90;;;;;;5093580;28;20039;-70
2022/08/23 12:12:36;;;;;;;;;;;26.60;99.90;;;;;;5097633;28;19964;-70
2022/08/23 12:15:05;;;;;;;;;;;26.70;99.90;;;;;;5096859;28;19952;-70
2022/08/23 12:17:33;;;;;;;;;;;26.50;99.90;;;;;;5073394;28;19908;-69
2022/08/23 12:20:09;;;;;;;;;;;26.30;99.90;;;;;;5097840;28;19916;-69
2022/08/23 12:22:53;;;;;;;;;;;26.40;99.90;;;;;;5097596;28;19916;-68
2022/08/23 12:25:20;;;;;;;;;;;26.60;99.90;;;;;;5084445;28;19994;-68
2022/08/23 12:27:54;;;;;;;;;;;27.00;99.90;;;;;;5102126;28;20099;-70
2022/08/23 12:30:23;;;;;;;;;;;27.20;99.90;;;;;;5091643;28;19916;-70
2022/08/23 12:32:52;;;;;;;;;;;27.20;99.90;;;;;;5104492;28;19963;-68
2022/08/23 12:35:17;;;;;;;;;;;27.20;99.90;;;;;;5108765;28;19994;-71
2022/08/23 12:37:56;;;;;;;;;;;27.40;99.90;;;;;;5101730;28;20041;-68
2022/08/23 12:40:28;;;;;;;;;;;27.60;99.90;;;;;;5095846;28;19908;-69
2022/08/23 12:43:02;;;;;;;;;;;27.70;99.90;;;;;;5106659;28;20310;-72
2022/08/23 12:45:35;;;;;;;;;;;27.70;99.90;;;;;;5112854;28;19955;-69
2022/08/23 12:48:01;;;;;;;;;;;27.80;99.90;;;;;;5076905;28;19915;-70
2022/08/23 12:50:27;;;;;;;;;;;27.90;99.90;;;;;;5089049;28;19912;-70
2022/08/23 12:52:58;;;;;;;;;;;27.70;99.90;;;;;;5074974;28;19912;-70
2022/08/23 12:55:28;;;;;;;;;;;27.80;99.90;;;;;;5098335;28;19958;-69
2022/08/23 12:57:55;;;;;;;;;;;27.70;99.90;;;;;;5096537;28;20079;-70
2022/08/23 13:00:44;;;;;;;;;;;27.50;99.90;;;;;;5097497;28;19919;-70
2022/08/23 13:03:20;;;;;;;;;;;27.50;99.90;;;;;;5096186;28;19958;-67
2022/08/23 13:05:48;;;;;;;;;;;27.50;99.90;;;;;;5106299;28;19971;-71
2022/08/23 13:08:16;;;;;;;;;;;27.40;99.90;;;;;;5084159;28;19912;-70
2022/08/23 13:10:43;;;;;;;;;;;27.50;99.90;;;;;;5097493;28;19953;-68
2022/08/23 13:13:10;;;;;;;;;;;27.40;99.90;;;;;;5097562;28;19908;-70
2022/08/23 13:15:47;;;;;;;;;;;27.40;99.90;;;;;;5103299;28;20381;-69
2022/08/23 13:18:44;;;;;;;;;;;27.40;99.90;;;;;;5101550;28;19912;-68
2022/08/23 13:21:16;;;;;;;;;;;27.30;99.90;;;;;;5083424;28;20383;-69
2022/08/23 13:23:42;;;;;;;;;;;27.20;99.90;;;;;;5080730;28;20509;-69
2022/08/23 13:26:32;;;;;;;;;;;27.20;99.90;;;;;;5096263;28;19969;-69
2022/08/23 13:29:09;;;;;;;;;;;27.30;99.90;;;;;;5112425;28;20327;-69
2022/08/23 13:31:48;;;;;;;;;;;27.30;99.90;;;;;;5094069;28;19918;-70
2022/08/23 13:34:30;;;;;;;;;;;27.40;99.90;;;;;;5098106;28;19934;-69
2022/08/23 13:36:57;;;;;;;;;;;27.50;99.90;;;;;;5080505;28;21978;-69
2022/08/23 13:39:22;;;;;;;;;;;27.40;99.90;;;;;;5104040;28;19914;-68
2022/08/23 13:41:48;;;;;;;;;;;27.50;99.90;;;;;;5108566;28;19912;-71
2022/08/23 13:44:17;;;;;;;;;;;27.70;99.90;;;;;;5073104;28;20361;-68
2022/08/23 13:46:44;;;;;;;;;;;27.90;99.90;;;;;;5098681;28;20018;-69
2022/08/23 13:49:15;;;;;;;;;;;27.90;99.90;;;;;;5097145;28;19920;-70
2022/08/23 13:51:42;;;;;;;;;;;27.70;99.90;;;;;;5099717;28;19923;-69
2022/08/23 13:54:09;;;;;;;;;;;27.90;99.90;;;;;;5109916;27;20399;-69
2022/08/23 13:56:56;;;;;;;;;;;28.00;99.90;;;;;;5103118;28;20022;-68
2022/08/23 13:59:25;;;;;;;;;;;28.30;99.90;;;;;;5090921;28;19973;-67
2022/08/23 14:01:51;;;;;;;;;;;28.20;99.90;;;;;;5094868;28;19912;-68
2022/08/23 14:04:16;;;;;;;;;;;28.10;99.90;;;;;;5100905;28;19912;-69
2022/08/23 14:06:42;;;;;;;;;;;28.00;99.90;;;;;;5092497;28;19923;-70
2022/08/23 14:09:08;;;;;;;;;;;27.80;99.90;;;;;;5102036;28;19990;-67
2022/08/23 14:11:33;;;;;;;;;;;27.70;99.90;;;;;;5094931;28;19911;-68
2022/08/23 14:13:59;;;;;;;;;;;27.80;99.90;;;;;;5099963;28;20042;-69
2022/08/23 14:16:27;;;;;;;;;;;28.00;99.90;;;;;;5101219;28;20233;-68
2022/08/23 14:18:52;;;;;;;;;;;28.00;99.90;;;;;;5092749;28;19998;-69
2022/08/23 14:21:18;;;;;;;;;;;27.70;99.90;;;;;;5101028;28;19970;-70
2022/08/23 14:23:44;;;;;;;;;;;27.40;99.90;;;;;;5096111;28;19927;-69
2022/08/23 14:26:13;;;;;;;;;;;27.40;99.90;;;;;;5083751;28;20328;-68
2022/08/23 14:28:38;;;;;;;;;;;27.60;99.90;;;;;;5082061;28;19962;-70
2022/08/23 14:31:04;;;;;;;;;;;27.70;99.90;;;;;;5088635;28;20386;-72
2022/08/23 14:33:30;;;;;;;;;;;27.70;99.90;;;;;;5087364;28;19912;-68
2022/08/23 14:35:56;;;;;;;;;;;27.80;99.90;;;;;;5052640;28;19916;-70